Time;durP1;ratioP1;P1;durP2;ratioP2;P2;SDS_P1;SDS_P2;PMS_P1;PMS_P2;Temp;Humidity;BMP_temperature;BMP_pressure;BME280_temperature;BME280_humidity;BME280_pressure;Samples;Min_cycle;Max_cycle;Signal;HPM_P1;HPM_P2
2022/07/10 00:00:41;;;;;;;2.20;2.03;;;18.20;99.90;;;;;;5087089;28;20709;-55
2022/07/10 00:03:08;;;;;;;2.23;2.10;;;18.20;99.90;;;;;;5081940;28;20205;-55
2022/07/10 00:05:35;;;;;;;2.50;1.87;;;18.30;99.90;;;;;;5085460;28;20193;-55
2022/07/10 00:08:07;;;;;;;2.07;2.07;;;18.20;99.90;;;;;;5082309;28;20578;-55
2022/07/10 00:10:34;;;;;;;2.13;2.03;;;18.30;99.90;;;;;;5090851;28;20670;-55
2022/07/10 00:13:01;;;;;;;2.63;2.43;;;18.20;99.90;;;;;;5086716;28;20282;-54
2022/07/10 00:15:28;;;;;;;2.17;2.17;;;18.20;99.90;;;;;;5086319;28;20201;-55
2022/07/10 00:17:55;;;;;;;3.03;2.93;;;18.10;99.90;;;;;;5084033;28;20262;-54
2022/07/10 00:20:22;;;;;;;2.40;2.30;;;18.10;99.90;;;;;;5074202;28;20224;-54
2022/07/10 00:22:49;;;;;;;3.03;2.80;;;18.10;99.90;;;;;;5073490;28;20274;-55
2022/07/10 00:25:18;;;;;;;2.70;2.60;;;18.00;99.90;;;;;;5075152;28;20262;-55
2022/07/10 00:27:45;;;;;;;2.67;2.60;;;18.20;99.90;;;;;;5085834;28;20262;-55
2022/07/10 00:30:12;;;;;;;2.60;2.50;;;18.30;99.90;;;;;;5088715;28;20709;-55
2022/07/10 00:32:39;;;;;;;2.90;2.70;;;18.30;99.90;;;;;;5093461;28;20200;-55
2022/07/10 00:35:07;;;;;;;2.00;1.93;;;18.20;99.90;;;;;;5092252;28;20192;-55
2022/07/10 00:37:36;;;;;;;2.23;2.13;;;18.00;99.90;;;;;;5084696;28;20287;-55
2022/07/10 00:40:04;;;;;;;2.30;2.10;;;17.90;99.90;;;;;;5085857;28;20249;-55
2022/07/10 00:42:33;;;;;;;2.10;2.10;;;18.00;99.90;;;;;;5093375;28;20705;-55
2022/07/10 00:45:00;;;;;;;2.10;2.00;;;18.10;99.90;;;;;;5094165;28;20204;-55
2022/07/10 00:47:27;;;;;;;2.20;2.20;;;18.00;99.90;;;;;;5082998;28;20220;-55
2022/07/10 00:49:54;;;;;;;1.80;1.60;;;18.10;99.90;;;;;;5082184;28;20225;-55
2022/07/10 00:52:21;;;;;;;1.80;1.70;;;18.00;99.90;;;;;;5086274;28;20238;-55
2022/07/10 00:54:51;;;;;;;1.83;1.63;;;18.00;99.90;;;;;;5092456;28;20204;-55
2022/07/10 00:57:19;;;;;;;1.50;1.50;;;18.00;99.90;;;;;;5082445;28;20722;-55
2022/07/10 00:59:49;;;;;;;1.63;1.63;;;18.00;99.90;;;;;;5076647;28;20224;-55
2022/07/10 01:02:17;;;;;;;2.40;2.20;;;18.10;99.90;;;;;;5082803;28;20907;-55
2022/07/10 01:04:44;;;;;;;1.90;1.80;;;18.00;99.90;;;;;;5090952;28;20204;-55
2022/07/10 01:07:11;;;;;;;4.47;3.33;;;18.00;99.90;;;;;;5086086;28;20251;-55
2022/07/10 01:09:38;;;;;;;5.93;3.87;;;18.00;99.90;;;;;;5081682;28;20737;-55
2022/07/10 01:12:07;;;;;;;5.07;3.43;;;18.00;99.90;;;;;;5092119;28;20197;-56
2022/07/10 01:14:37;;;;;;;3.67;3.10;;;18.00;99.90;;;;;;5082947;28;20205;-55
2022/07/10 01:17:07;;;;;;;3.80;2.93;;;18.00;99.90;;;;;;5079736;28;20646;-55
2022/07/10 01:19:34;;;;;;;1.73;1.73;;;18.00;99.90;;;;;;5085961;28;20307;-55
2022/07/10 01:22:02;;;;;;;2.17;2.07;;;18.00;99.90;;;;;;5081164;28;20261;-55
2022/07/10 01:24:29;;;;;;;2.03;1.97;;;18.10;99.90;;;;;;5081161;28;20197;-55
2022/07/10 01:26:56;;;;;;;2.20;1.87;;;18.10;99.90;;;;;;5082447;28;20785;-55
2022/07/10 01:29:23;;;;;;;2.53;2.40;;;18.10;99.90;;;;;;5080019;28;20286;-55
2022/07/10 01:31:50;;;;;;;1.93;1.83;;;18.10;99.90;;;;;;5080203;28;20223;-55
2022/07/10 01:34:18;;;;;;;2.67;2.57;;;18.10;99.90;;;;;;5072944;28;20201;-55
2022/07/10 01:36:45;;;;;;;1.93;1.83;;;18.10;99.90;;;;;;5079748;28;20258;-55
2022/07/10 01:39:14;;;;;;;2.47;1.70;;;18.10;99.90;;;;;;5082629;28;20225;-55
2022/07/10 01:41:41;;;;;;;2.10;1.87;;;18.10;99.90;;;;;;5091179;28;20254;-55
2022/07/10 01:44:08;;;;;;;2.27;2.07;;;18.00;99.90;;;;;;5080465;28;20220;-55
2022/07/10 01:46:35;;;;;;;2.23;2.10;;;18.00;99.90;;;;;;5084272;28;20196;-55
2022/07/10 01:49:02;;;;;;;2.00;2.00;;;18.00;99.90;;;;;;5108145;22;20294;-48
2022/07/10 01:51:28;;;;;;;3.57;2.23;;;18.10;99.90;;;;;;5071164;28;20209;-49
2022/07/10 01:53:55;;;;;;;2.17;2.07;;;18.20;99.90;;;;;;5071047;28;20201;-48
2022/07/10 01:56:24;;;;;;;2.20;2.10;;;18.10;99.90;;;;;;5072868;28;20201;-48
2022/07/10 01:58:51;;;;;;;2.67;1.90;;;18.10;99.90;;;;;;5074974;28;20216;-49
2022/07/10 02:01:18;;;;;;;1.63;1.63;;;18.10;99.90;;;;;;5092542;28;20216;-48
2022/07/10 02:06:29;;;;;;;4.13;1.87;;;18.00;99.90;;;;;;5091641;28;20253;-48
2022/07/10 02:08:56;;;;;;;1.70;1.70;;;18.10;99.90;;;;;;5091359;28;20216;-48
2022/07/10 02:11:24;;;;;;;2.10;2.00;;;18.00;99.90;;;;;;5090357;28;20196;-48
2022/07/10 02:13:51;;;;;;;1.90;1.80;;;18.00;99.90;;;;;;5091124;28;20263;-48
2022/07/10 02:16:18;;;;;;;1.40;1.40;;;18.00;99.90;;;;;;5092838;28;20238;-48
2022/07/10 02:18:45;;;;;;;1.93;1.93;;;17.90;99.90;;;;;;5090892;28;20281;-49
2022/07/10 02:21:12;;;;;;;2.10;1.90;;;17.90;99.90;;;;;;5088892;28;20266;-48
2022/07/10 02:23:40;;;;;;;1.90;1.80;;;17.90;99.90;;;;;;5090167;28;20200;-48
2022/07/10 02:26:08;;;;;;;2.10;2.00;;;18.00;99.90;;;;;;5088090;28;20203;-47
2022/07/10 02:28:37;;;;;;;3.50;2.10;;;18.00;99.90;;;;;;5090796;28;20209;-48
2022/07/10 02:31:04;;;;;;;3.67;2.27;;;18.00;99.90;;;;;;5085749;28;20254;-49
2022/07/10 02:33:31;;;;;;;3.57;2.00;;;18.00;99.90;;;;;;5089389;28;20749;-49
2022/07/10 02:35:58;;;;;;;2.03;1.87;;;18.10;99.90;;;;;;5088404;28;20207;-49
2022/07/10 02:38:25;;;;;;;1.87;1.77;;;18.10;99.90;;;;;;5090133;28;20254;-49
2022/07/10 02:40:52;;;;;;;2.27;2.13;;;18.20;99.90;;;;;;5088032;28;20529;-48
2022/07/10 02:43:18;;;;;;;2.43;1.87;;;18.30;99.90;;;;;;5090510;28;20245;-48
2022/07/10 02:45:47;;;;;;;2.03;1.80;;;18.40;99.90;;;;;;5090965;28;20200;-48
2022/07/10 02:48:15;;;;;;;2.13;2.03;;;18.40;99.90;;;;;;5089640;28;20291;-48
2022/07/10 02:50:42;;;;;;;2.23;2.13;;;18.20;99.90;;;;;;5090223;28;20225;-49
2022/07/10 02:53:11;;;;;;;2.57;2.37;;;18.20;99.90;;;;;;5084808;28;20197;-48
2022/07/10 02:55:38;;;;;;;2.17;2.10;;;18.10;99.90;;;;;;5092150;28;20196;-49
2022/07/10 02:58:09;;;;;;;3.23;1.93;;;18.00;99.90;;;;;;5090902;28;20208;-49
2022/07/10 03:00:36;;;;;;;1.87;1.87;;;18.10;99.90;;;;;;5087484;28;20230;-48
2022/07/10 03:03:04;;;;;;;1.60;1.50;;;18.10;99.90;;;;;;5089788;28;20273;-48
2022/07/10 03:05:31;;;;;;;1.80;1.70;;;18.10;99.90;;;;;;5091798;28;20192;-48
2022/07/10 03:07:58;;;;;;;1.23;1.23;;;18.10;99.90;;;;;;5092238;28;20200;-48
2022/07/10 03:10:25;;;;;;;4.30;2.13;;;18.10;99.90;;;;;;5088367;28;20220;-48
2022/07/10 03:12:52;;;;;;;2.73;2.20;;;18.10;99.90;;;;;;5089871;28;20208;-48
2022/07/10 03:15:20;;;;;;;4.47;3.57;;;18.30;99.90;;;;;;5090209;28;20250;-48
2022/07/10 03:17:47;;;;;;;2.10;2.10;;;18.40;99.90;;;;;;5089159;28;20200;-48
2022/07/10 03:20:15;;;;;;;3.67;3.47;;;18.50;99.90;;;;;;5089782;28;20273;-48
2022/07/10 03:22:42;;;;;;;3.30;3.13;;;18.50;99.90;;;;;;5086303;28;20254;-49
2022/07/10 03:25:10;;;;;;;2.63;2.50;;;18.50;99.90;;;;;;5091437;28;20197;-48
2022/07/10 03:27:37;;;;;;;4.30;3.30;;;18.50;99.90;;;;;;5088772;28;20239;-48
2022/07/10 03:30:05;;;;;;;2.63;2.43;;;18.50;99.90;;;;;;5088131;28;20277;-49
2022/07/10 03:32:32;;;;;;;2.63;2.53;;;18.40;99.90;;;;;;5090004;28;20193;-49
2022/07/10 03:34:59;;;;;;;2.70;2.50;;;18.40;99.90;;;;;;5087048;28;20751;-49
2022/07/10 03:37:28;;;;;;;1.70;1.70;;;18.40;99.90;;;;;;5091699;28;20216;-49
2022/07/10 03:39:55;;;;;;;5.20;2.80;;;18.40;99.90;;;;;;5090487;28;20277;-48
2022/07/10 03:42:22;;;;;;;4.13;3.07;;;18.40;99.90;;;;;;5085176;28;20207;-48
2022/07/10 03:44:49;;;;;;;2.70;2.50;;;18.50;99.90;;;;;;5090754;28;20200;-48
2022/07/10 03:47:16;;;;;;;2.70;2.50;;;18.60;99.90;;;;;;5090212;28;20555;-48
2022/07/10 03:49:43;;;;;;;2.90;2.80;;;18.60;99.90;;;;;;5090487;28;20232;-48
2022/07/10 03:52:09;;;;;;;2.40;2.20;;;18.60;99.90;;;;;;5094145;28;20230;-48
2022/07/10 03:54:38;;;;;;;2.33;2.23;;;18.70;99.90;;;;;;5093399;28;20196;-48
2022/07/10 03:59:50;;;;;;;2.63;2.57;;;18.60;99.90;;;;;;5086341;28;20231;-48
2022/07/10 04:02:17;;;;;;;2.53;2.33;;;18.60;99.90;;;;;;5101565;28;20551;-48
2022/07/10 04:04:44;;;;;;;2.90;2.17;;;18.60;99.90;;;;;;5090675;28;20654;-48
2022/07/10 04:07:12;;;;;;;3.00;2.83;;;18.60;99.90;;;;;;5093405;28;20192;-48
2022/07/10 04:09:40;;;;;;;3.33;3.13;;;18.60;99.90;;;;;;5092052;28;20320;-48
2022/07/10 04:12:08;;;;;;;3.20;3.00;;;18.60;99.90;;;;;;5093375;28;20253;-48
2022/07/10 04:14:35;;;;;;;3.67;3.37;;;18.60;99.90;;;;;;5095189;28;20208;-47
2022/07/10 04:17:02;;;;;;;3.37;3.27;;;18.60;99.90;;;;;;5090804;28;20192;-48
2022/07/10 04:19:29;;;;;;;3.30;3.10;;;18.60;99.90;;;;;;5094055;28;20224;-48
2022/07/10 04:21:56;;;;;;;4.50;3.60;;;18.60;99.90;;;;;;5090660;28;20213;-48
2022/07/10 04:24:22;;;;;;;3.03;2.90;;;18.60;99.90;;;;;;5093613;28;20273;-48
2022/07/10 04:26:51;;;;;;;3.93;3.60;;;18.70;99.90;;;;;;5092232;28;20200;-47
2022/07/10 04:29:18;;;;;;;3.47;3.17;;;18.60;99.90;;;;;;5088932;28;20693;-48
2022/07/10 04:31:46;;;;;;;3.57;3.47;;;18.70;99.90;;;;;;5081769;28;20201;-48
2022/07/10 04:34:13;;;;;;;3.17;3.07;;;18.70;99.90;;;;;;5083210;28;20197;-49
2022/07/10 04:36:40;;;;;;;3.70;3.50;;;18.70;99.90;;;;;;5089016;28;20789;-48
2022/07/10 04:39:07;;;;;;;3.80;3.53;;;18.70;99.90;;;;;;5093595;28;20212;-48
2022/07/10 04:41:34;;;;;;;3.43;3.23;;;18.70;99.90;;;;;;5087627;28;20616;-47
2022/07/10 04:44:02;;;;;;;3.13;3.03;;;18.50;99.90;;;;;;5091845;28;20227;-48
2022/07/10 04:46:29;;;;;;;3.50;3.40;;;18.60;99.90;;;;;;5091733;28;20667;-48
2022/07/10 04:48:56;;;;;;;3.50;3.30;;;18.60;99.90;;;;;;5094084;28;20274;-48
2022/07/10 04:51:23;;;;;;;3.33;3.13;;;18.70;99.90;;;;;;5093809;28;20192;-49
2022/07/10 04:53:50;;;;;;;3.57;3.27;;;18.70;99.90;;;;;;5094367;28;20202;-48
2022/07/10 04:56:17;;;;;;;4.30;3.60;;;18.90;99.90;;;;;;5094245;28;20204;-48
2022/07/10 04:58:45;;;;;;;3.70;3.50;;;18.90;99.90;;;;;;5094233;28;20303;-48
2022/07/10 05:01:13;;;;;;;3.67;3.53;;;19.00;99.90;;;;;;5088801;28;20213;-48
2022/07/10 05:03:40;;;;;;;4.30;3.40;;;18.90;99.90;;;;;;5092491;28;20208;-48
2022/07/10 05:06:07;;;;;;;4.70;4.27;;;19.00;99.90;;;;;;5099566;28;20188;-48
2022/07/10 05:08:34;;;;;;;3.43;3.20;;;18.90;99.90;;;;;;5100659;28;20196;-48
2022/07/10 05:11:01;;;;;;;4.00;3.70;;;18.90;99.90;;;;;;5093906;28;20616;-49
2022/07/10 05:13:28;;;;;;;3.73;3.30;;;18.80;99.90;;;;;;5073701;28;20216;-47
2022/07/10 05:15:55;;;;;;;3.90;3.37;;;18.80;99.90;;;;;;5073772;28;20650;-49
2022/07/10 05:18:24;;;;;;;3.80;3.50;;;18.70;99.90;;;;;;5090555;28;20196;-49
2022/07/10 05:20:51;;;;;;;3.43;3.23;;;18.70;99.90;;;;;;5091002;28;20216;-47
2022/07/10 05:23:18;;;;;;;3.87;3.57;;;18.70;99.90;;;;;;5093734;28;20295;-48
2022/07/10 05:25:45;;;;;;;3.57;3.30;;;18.70;99.90;;;;;;5114410;28;20200;-48
2022/07/10 05:28:14;;;;;;;3.93;3.73;;;18.70;99.90;;;;;;5092555;28;20644;-49
2022/07/10 05:30:41;;;;;;;4.17;3.40;;;18.60;99.90;;;;;;5091894;28;20213;-48
2022/07/10 05:33:08;;;;;;;3.83;3.63;;;18.60;99.90;;;;;;5088801;28;20277;-49
2022/07/10 05:35:37;;;;;;;3.93;3.63;;;18.50;99.90;;;;;;5072629;28;20193;-48
2022/07/10 05:38:07;;;;;;;3.77;3.40;;;18.40;99.90;;;;;;5088221;28;20228;-48
2022/07/10 05:40:34;;;;;;;4.13;4.03;;;18.40;99.90;;;;;;5088793;28;20600;-48
2022/07/10 05:43:01;;;;;;;3.70;3.40;;;18.40;99.90;;;;;;5090894;28;20216;-48
2022/07/10 05:45:28;;;;;;;4.13;3.80;;;18.30;99.90;;;;;;5085284;28;20229;-48
2022/07/10 05:47:55;;;;;;;3.80;3.70;;;18.30;99.90;;;;;;5072354;28;20234;-47
2022/07/10 05:50:22;;;;;;;3.57;3.37;;;18.20;99.90;;;;;;5072165;28;20579;-47
2022/07/10 05:52:51;;;;;;;3.40;3.20;;;18.20;99.90;;;;;;5074587;28;20250;-48
2022/07/10 05:55:18;;;;;;;3.97;3.77;;;18.10;99.90;;;;;;5075907;28;20270;-48
2022/07/10 05:57:44;;;;;;;3.43;3.33;;;18.00;99.90;;;;;;5078280;28;20245;-48
2022/07/10 06:00:12;;;;;;;3.67;3.47;;;18.00;99.90;;;;;;5087137;28;20228;-48
2022/07/10 06:02:39;;;;;;;5.13;3.77;;;18.00;99.90;;;;;;5091889;28;20224;-48
2022/07/10 06:05:07;;;;;;;3.17;3.07;;;18.00;99.90;;;;;;5088819;28;20201;-48
2022/07/10 06:07:35;;;;;;;3.97;3.77;;;18.00;99.90;;;;;;5093512;28;20227;-48
2022/07/10 06:10:05;;;;;;;3.83;3.67;;;17.90;99.90;;;;;;5091347;28;20255;-47
2022/07/10 06:12:32;;;;;;;3.47;3.17;;;18.00;99.90;;;;;;5091473;28;20283;-48
2022/07/10 06:14:59;;;;;;;5.53;5.03;;;18.00;99.90;;;;;;5092824;28;20257;-48
2022/07/10 06:17:26;;;;;;;3.97;3.67;;;17.90;99.90;;;;;;5093512;28;20233;-48
2022/07/10 06:19:54;;;;;;;4.33;4.03;;;17.90;99.90;;;;;;5085640;28;20216;-48
2022/07/10 06:22:33;;;;;;;4.50;4.03;;;17.90;99.90;;;;;;5085677;28;20212;-48
2022/07/10 06:25:01;;;;;;;4.30;4.03;;;17.90;99.90;;;;;;5082588;28;20200;-48
2022/07/10 06:27:30;;;;;;;4.20;3.90;;;17.90;99.90;;;;;;5090747;28;20245;-47
2022/07/10 06:29:57;;;;;;;4.00;3.80;;;17.80;99.90;;;;;;5091940;28;20228;-48
2022/07/10 06:32:24;;;;;;;5.03;4.73;;;17.90;99.90;;;;;;5091537;28;20188;-47
2022/07/10 06:34:51;;;;;;;4.93;4.63;;;17.90;99.90;;;;;;5091618;28;20204;-47
2022/07/10 06:37:19;;;;;;;4.83;4.50;;;17.90;99.90;;;;;;5091393;28;20193;-48
2022/07/10 06:39:47;;;;;;;4.77;4.57;;;17.90;99.90;;;;;;5091922;28;20216;-48
2022/07/10 06:42:15;;;;;;;5.40;5.00;;;17.90;99.90;;;;;;5091455;28;20609;-47
2022/07/10 06:44:44;;;;;;;5.20;4.80;;;17.90;99.90;;;;;;5090964;28;20208;-48
2022/07/10 06:49:57;;;;;;;5.10;4.70;;;18.00;99.90;;;;;;5088468;28;20249;-48
2022/07/10 06:52:24;;;;;;;5.03;4.80;;;18.10;99.90;;;;;;5091637;28;20196;-48
2022/07/10 06:54:52;;;;;;;5.13;4.80;;;18.30;99.90;;;;;;5090003;28;20223;-48
2022/07/10 06:57:19;;;;;;;5.60;5.27;;;18.50;99.90;;;;;;5089694;28;20284;-48
2022/07/10 06:59:48;;;;;;;5.03;4.73;;;18.50;99.90;;;;;;5090292;28;20295;-48
2022/07/10 07:02:15;;;;;;;5.47;5.17;;;18.60;99.90;;;;;;5081274;28;20695;-48
2022/07/10 07:04:42;;;;;;;5.33;5.13;;;18.70;99.90;;;;;;5074975;28;20732;-49
2022/07/10 07:07:09;;;;;;;5.07;4.70;;;18.80;99.90;;;;;;5071012;28;20201;-48
2022/07/10 07:09:36;;;;;;;6.80;6.27;;;18.90;99.90;;;;;;5070900;28;20221;-49
2022/07/10 07:12:03;;;;;;;4.83;4.57;;;19.10;99.90;;;;;;5089703;28;20243;-48
2022/07/10 07:14:30;;;;;;;4.73;4.50;;;19.10;99.90;;;;;;5090425;28;20204;-49
2022/07/10 07:17:01;;;;;;;4.03;3.93;;;19.30;99.90;;;;;;5089841;28;20208;-48
2022/07/10 07:23:09;;;;;;;4.50;4.20;;;19.50;99.90;;;;;;5086438;28;20231;-48
2022/07/10 07:25:10;;;;;;;4.80;4.50;;;19.60;99.90;;;;;;5081224;28;20448;-48
2022/07/10 07:27:38;;;;;;;4.30;4.00;;;19.70;99.90;;;;;;5083376;28;20215;-49
2022/07/10 07:30:07;;;;;;;4.03;3.93;;;19.80;99.90;;;;;;5088407;28;20227;-48
2022/07/10 07:32:35;;;;;;;4.93;4.57;;;19.90;99.90;;;;;;5085153;28;20196;-49
2022/07/10 07:35:03;;;;;;;4.43;3.87;;;19.90;99.90;;;;;;5088799;28;20202;-50
2022/07/10 07:37:38;;;;;;;4.60;4.23;;;20.10;99.90;;;;;;5077909;28;20694;-49
2022/07/10 07:40:07;;;;;;;4.63;4.23;;;20.20;99.90;;;;;;5087610;28;20228;-48
2022/07/10 07:42:34;;;;;;;8.10;4.20;;;20.50;99.90;;;;;;5089762;28;20277;-48
2022/07/10 07:45:02;;;;;;;4.63;4.33;;;20.90;99.90;;;;;;5090311;28;20219;-48
2022/07/10 07:47:29;;;;;;;3.10;3.10;;;20.60;99.90;;;;;;5081048;28;20200;-49
2022/07/10 07:49:58;;;;;;;3.90;3.70;;;20.60;99.90;;;;;;5082169;28;20232;-50
2022/07/10 07:52:25;;;;;;;3.40;3.20;;;21.00;99.90;;;;;;5080492;28;20235;-49
2022/07/10 07:54:52;;;;;;;4.07;3.87;;;21.00;99.90;;;;;;5078350;28;20207;-49
2022/07/10 07:57:19;;;;;;;3.67;3.47;;;20.90;99.90;;;;;;5079711;28;20615;-50
2022/07/10 07:59:46;;;;;;;4.03;3.83;;;20.90;99.90;;;;;;5082140;28;20868;-50
2022/07/10 08:02:13;;;;;;;5.10;4.70;;;20.80;99.90;;;;;;5081001;28;20316;-50
2022/07/10 08:04:40;;;;;;;4.40;4.30;;;20.80;99.90;;;;;;5079906;28;20197;-49
2022/07/10 08:07:08;;;;;;;5.23;4.93;;;20.60;99.90;;;;;;5081129;28;20192;-49
2022/07/10 08:09:36;;;;;;;4.27;4.07;;;20.30;99.90;;;;;;5081490;28;20224;-49
2022/07/10 08:12:03;;;;;;;5.10;4.80;;;20.30;99.90;;;;;;5083272;28;20589;-48
2022/07/10 08:14:30;;;;;;;5.00;4.70;;;20.30;99.90;;;;;;5081332;28;20670;-49
2022/07/10 08:16:57;;;;;;;5.03;4.33;;;20.40;99.90;;;;;;5081612;28;20295;-49
2022/07/10 08:19:24;;;;;;;4.47;4.03;;;20.50;99.90;;;;;;5080936;28;20221;-49
2022/07/10 08:21:52;;;;;;;3.83;3.63;;;20.80;99.90;;;;;;5080887;28;20219;-50
2022/07/10 08:24:20;;;;;;;5.20;4.80;;;21.00;99.90;;;;;;5081040;28;20420;-49
2022/07/10 08:26:47;;;;;;;4.67;4.50;;;21.10;99.90;;;;;;5081076;28;21045;-49
2022/07/10 08:29:15;;;;;;;5.50;5.00;;;21.40;99.90;;;;;;5082074;28;20228;-49
2022/07/10 08:31:42;;;;;;;4.87;4.53;;;21.50;99.90;;;;;;5107992;22;20304;-56
2022/07/10 08:34:09;;;;;;;4.43;4.23;;;21.60;99.90;;;;;;5066451;28;20690;-55
2022/07/10 08:36:36;;;;;;;4.30;4.10;;;21.60;99.90;;;;;;5070393;28;20696;-55
2022/07/10 08:39:03;;;;;;;4.20;3.83;;;21.70;99.90;;;;;;5071449;28;20219;-56
2022/07/10 08:41:34;;;;;;;3.60;3.50;;;21.90;99.90;;;;;;5070314;28;20221;-56
2022/07/10 08:44:01;;;;;;;4.67;4.37;;;22.00;99.90;;;;;;5092250;28;20578;-55
2022/07/10 08:46:29;;;;;;;4.47;4.17;;;21.90;99.90;;;;;;5093536;28;20250;-56
2022/07/10 08:49:01;;;;;;;7.60;4.50;;;21.70;99.90;;;;;;5086826;28;20211;-56
2022/07/10 08:51:37;;;;;;;5.47;5.17;;;21.40;99.90;;;;;;5091348;28;20196;-56
2022/07/10 08:54:06;;;;;;;5.17;4.80;;;21.40;99.90;;;;;;5087763;28;20299;-56
2022/07/10 08:56:35;;;;;;;4.77;4.33;;;21.40;99.90;;;;;;5088178;28;20280;-56
2022/07/10 08:59:04;;;;;;;5.83;4.47;;;21.60;99.90;;;;;;5091005;28;20204;-56
2022/07/10 09:01:32;;;;;;;4.30;4.20;;;21.40;99.90;;;;;;5088954;28;20644;-56
2022/07/10 09:04:00;;;;;;;4.77;4.57;;;21.20;99.90;;;;;;5093099;28;20673;-56
2022/07/10 09:06:29;;;;;;;5.10;4.90;;;21.30;99.90;;;;;;5094604;28;20659;-56
2022/07/10 09:09:01;;;;;;;5.30;4.97;;;21.40;99.90;;;;;;5094300;28;20677;-56
2022/07/10 09:11:29;;;;;;;5.33;5.07;;;21.40;99.90;;;;;;5091541;28;20201;-56
2022/07/10 09:13:58;;;;;;;5.27;4.87;;;21.50;99.90;;;;;;5091653;28;20231;-56
2022/07/10 09:16:27;;;;;;;4.37;4.27;;;21.80;99.90;;;;;;5091094;28;20280;-56
2022/07/10 09:18:55;;;;;;;5.20;4.77;;;22.00;99.90;;;;;;5090515;28;20197;-55
2022/07/10 09:21:22;;;;;;;4.13;3.77;;;21.90;99.90;;;;;;5089845;28;20266;-56
2022/07/10 09:23:49;;;;;;;4.57;4.37;;;22.10;99.90;;;;;;5089104;28;20224;-56
2022/07/10 09:26:16;;;;;;;6.47;4.07;;;22.30;99.90;;;;;;5091497;28;20196;-56
2022/07/10 09:28:43;;;;;;;4.70;4.53;;;22.30;99.90;;;;;;5090313;28;20207;-56
2022/07/10 09:31:11;;;;;;;5.13;4.83;;;22.30;99.90;;;;;;5085269;28;20662;-56
2022/07/10 09:33:41;;;;;;;5.00;4.70;;;22.10;99.90;;;;;;5090843;28;20780;-55
2022/07/10 09:36:10;;;;;;;4.50;4.30;;;22.10;99.90;;;;;;5096479;28;20654;-56
2022/07/10 09:38:57;;;;;;;4.07;3.87;;;22.20;99.90;;;;;;5092357;28;20197;-56
2022/07/10 09:41:28;;;;;;;4.47;4.10;;;22.90;99.90;;;;;;5071782;28;20300;-56
2022/07/10 09:43:56;;;;;;;4.13;3.87;;;23.00;99.90;;;;;;5072734;28;20205;-56
2022/07/10 09:46:26;;;;;;;4.90;4.10;;;23.30;99.90;;;;;;5072408;28;20247;-56
2022/07/10 09:49:08;;;;;;;4.60;4.40;;;23.60;99.90;;;;;;5092431;28;20204;-56
2022/07/10 09:51:37;;;;;;;4.77;4.47;;;23.50;99.90;;;;;;5091560;28;20662;-56
2022/07/10 09:54:05;;;;;;;3.90;3.70;;;23.40;99.90;;;;;;5092565;28;20230;-56
2022/07/10 09:56:41;;;;;;;3.40;3.30;;;23.20;99.90;;;;;;5084329;28;20232;-57
2022/07/10 09:59:11;;;;;;;3.67;3.37;;;23.10;99.90;;;;;;5091128;28;20204;-56
2022/07/10 10:01:43;;;;;;;4.07;3.77;;;23.30;99.90;;;;;;5089496;28;20203;-56
2022/07/10 10:04:12;;;;;;;3.37;3.10;;;23.90;99.90;;;;;;5082907;28;20254;-56
2022/07/10 10:06:41;;;;;;;3.67;3.47;;;24.10;99.90;;;;;;5083076;28;20201;-56
2022/07/10 10:09:12;;;;;;;3.67;3.57;;;24.10;99.90;;;;;;5090159;28;20197;-56
2022/07/10 10:11:42;;;;;;;3.67;3.47;;;24.20;99.90;;;;;;5090462;28;20635;-56
2022/07/10 10:14:09;;;;;;;4.07;3.97;;;24.50;99.90;;;;;;5089814;28;20192;-56
2022/07/10 10:16:36;;;;;;;3.60;3.50;;;25.10;99.90;;;;;;5092228;28;20273;-56
2022/07/10 10:21:50;;;;;;;3.27;3.17;;;26.20;99.90;;;;;;5091472;28;20305;-56
2022/07/10 10:24:18;;;;;;;2.73;2.60;;;25.90;99.90;;;;;;5090484;28;20242;-56
2022/07/10 10:26:46;;;;;;;3.43;3.23;;;25.50;99.90;;;;;;5090447;28;20265;-56
2022/07/10 10:29:13;;;;;;;3.27;3.17;;;25.30;99.90;;;;;;5089091;28;20239;-56
2022/07/10 10:31:42;;;;;;;3.43;3.23;;;25.20;99.90;;;;;;5090042;28;20208;-56
2022/07/10 10:34:10;;;;;;;2.50;2.40;;;25.00;99.90;;;;;;5087593;28;20252;-56
2022/07/10 10:36:47;;;;;;;3.20;3.10;;;24.90;99.90;;;;;;5091638;28;20197;-55
2022/07/10 10:39:17;;;;;;;2.57;2.47;;;24.60;99.90;;;;;;5085868;28;20333;-56
2022/07/10 10:41:48;;;;;;;3.63;3.50;;;24.60;99.90;;;;;;5090704;28;20254;-56
2022/07/10 10:44:32;;;;;;;3.40;3.30;;;24.50;99.90;;;;;;5078347;28;20209;-53
2022/07/10 10:47:07;;;;;;;2.73;2.60;;;25.10;99.90;;;;;;5071401;28;20223;-53
2022/07/10 10:49:53;;;;;;;4.10;3.70;;;25.10;99.90;;;;;;5088824;28;20199;-53
2022/07/10 10:52:21;;;;;;;2.73;2.63;;;25.10;99.90;;;;;;5082085;28;20240;-53
2022/07/10 10:55:04;;;;;;;3.10;2.80;;;25.90;99.90;;;;;;5091564;28;20872;-53
2022/07/10 10:57:46;;;;;;;2.90;2.70;;;26.10;99.90;;;;;;5090121;28;20223;-53
2022/07/10 11:00:16;;;;;;;3.53;3.43;;;26.50;99.90;;;;;;5082454;28;20197;-53
2022/07/10 11:02:43;;;;;;;3.30;3.20;;;26.50;99.90;;;;;;5089093;28;20216;-52
2022/07/10 11:05:45;;;;;;;5.40;4.33;;;26.50;99.90;;;;;;5090111;28;20753;-52
2022/07/10 11:08:36;;;;;;;3.37;3.27;;;26.70;99.90;;;;;;4989533;28;20277;-52
2022/07/10 11:11:38;;;;;;;3.27;3.17;;;26.00;99.90;;;;;;4989155;28;20243;-52
2022/07/10 11:14:07;;;;;;;3.60;3.40;;;26.00;99.90;;;;;;5068026;28;20239;-52
2022/07/10 11:16:34;;;;;;;3.07;2.97;;;26.30;99.90;;;;;;5090990;28;20204;-52
2022/07/10 11:19:03;;;;;;;3.27;3.00;;;26.00;99.90;;;;;;5091261;28;20296;-52
2022/07/10 11:21:41;;;;;;;2.83;2.73;;;25.30;99.90;;;;;;5090564;28;20211;-51
2022/07/10 11:24:14;;;;;;;3.50;3.37;;;24.80;99.90;;;;;;5091486;28;20216;-52
2022/07/10 11:26:56;;;;;;;3.17;3.07;;;24.40;99.90;;;;;;5090880;28;20273;-51
2022/07/10 11:29:25;;;;;;;3.63;3.20;;;24.30;99.90;;;;;;5090998;28;20238;-51
2022/07/10 11:31:55;;;;;;;4.03;3.83;;;24.20;99.90;;;;;;5090301;28;20224;-51
2022/07/10 11:34:23;;;;;;;3.33;3.13;;;24.00;99.90;;;;;;5090073;28;20201;-52
2022/07/10 11:36:50;;;;;;;4.70;3.67;;;24.30;99.90;;;;;;5090827;28;20286;-52
2022/07/10 11:39:17;;;;;;;4.27;3.93;;;24.20;99.90;;;;;;5090969;28;20277;-52
2022/07/10 11:41:45;;;;;;;2.83;2.77;;;24.30;99.90;;;;;;5090418;28;20631;-51
2022/07/10 11:44:16;;;;;;;3.07;2.90;;;24.70;99.90;;;;;;5090291;28;20303;-51
2022/07/10 11:46:48;;;;;;;3.40;3.30;;;25.00;99.90;;;;;;5091039;28;20213;-52
2022/07/10 11:49:17;;;;;;;3.37;3.07;;;24.70;99.90;;;;;;5090950;28;20196;-52
2022/07/10 11:51:44;;;;;;;3.10;2.90;;;24.70;99.90;;;;;;5090048;28;20291;-52
2022/07/10 11:54:15;;;;;;;3.40;3.23;;;24.70;99.90;;;;;;5089997;28;20196;-52
2022/07/10 11:56:47;;;;;;;2.90;2.70;;;24.60;99.90;;;;;;5090825;28;20203;-52
2022/07/10 11:59:15;;;;;;;2.00;1.93;;;24.70;99.90;;;;;;5091017;28;20562;-52
2022/07/10 12:01:44;;;;;;;2.67;2.57;;;24.70;99.90;;;;;;5090026;28;20251;-52
2022/07/10 12:04:13;;;;;;;2.40;2.30;;;24.80;99.90;;;;;;5089311;28;20247;-52
2022/07/10 12:06:42;;;;;;;2.70;2.60;;;24.60;99.90;;;;;;5090435;28;20355;-52
2022/07/10 12:09:10;;;;;;;2.80;2.73;;;24.90;99.90;;;;;;5090762;28;20287;-52
2022/07/10 12:11:38;;;;;;;2.33;2.33;;;24.90;99.90;;;;;;5093905;28;20528;-52
2022/07/10 12:14:14;;;;;;;2.50;2.40;;;24.90;99.90;;;;;;5093634;28;20245;-52
2022/07/10 12:16:43;;;;;;;2.50;2.40;;;24.70;99.90;;;;;;5093365;28;20548;-53
2022/07/10 12:19:15;;;;;;;2.73;2.63;;;24.80;99.90;;;;;;5081355;28;20198;-53
2022/07/10 12:21:43;;;;;;;2.90;2.33;;;25.00;99.90;;;;;;5089947;28;20204;-52
2022/07/10 12:24:11;;;;;;;2.40;2.30;;;24.80;99.90;;;;;;5093282;28;20303;-53
2022/07/10 12:26:41;;;;;;;2.03;1.93;;;24.70;99.90;;;;;;5094296;28;20249;-52
2022/07/10 12:29:19;;;;;;;2.13;2.07;;;24.60;99.90;;;;;;5094286;28;20204;-53
2022/07/10 12:31:49;;;;;;;2.17;2.17;;;24.50;99.90;;;;;;5093414;28;20273;-53
2022/07/10 12:34:18;;;;;;;2.50;2.20;;;24.40;99.90;;;;;;5093514;28;20200;-54
2022/07/10 12:36:50;;;;;;;2.43;2.33;;;24.50;99.90;;;;;;5093922;28;20204;-53
2022/07/10 12:39:19;;;;;;;1.90;1.90;;;24.50;99.90;;;;;;5093979;28;20204;-52
2022/07/10 12:41:57;;;;;;;2.17;2.07;;;24.60;99.90;;;;;;5092912;28;20229;-53
2022/07/10 12:44:39;;;;;;;2.93;2.10;;;24.60;99.90;;;;;;5092821;28;20220;-52
2022/07/10 12:47:10;;;;;;;1.57;1.57;;;24.40;99.90;;;;;;5093857;28;20731;-53
2022/07/10 12:49:52;;;;;;;2.23;2.13;;;24.40;99.90;;;;;;5094009;28;20200;-53
2022/07/10 12:52:27;;;;;;;1.70;1.70;;;24.40;99.90;;;;;;5093108;28;20270;-53
2022/07/10 12:55:09;;;;;;;2.03;1.97;;;24.40;99.90;;;;;;5092538;28;20204;-53
2022/07/10 12:57:50;;;;;;;2.37;2.23;;;24.50;99.90;;;;;;5093667;28;20492;-53
2022/07/10 13:00:19;;;;;;;2.17;2.10;;;24.40;99.90;;;;;;5091457;28;20200;-52
2022/07/10 13:02:50;;;;;;;2.13;2.03;;;24.30;99.90;;;;;;5091208;28;20226;-53
2022/07/10 13:05:31;;;;;;;2.13;2.03;;;24.20;99.90;;;;;;5091426;28;20265;-52
2022/07/10 13:08:15;;;;;;;2.23;2.03;;;24.30;99.90;;;;;;5092329;28;20303;-52
2022/07/10 13:10:42;;;;;;;2.77;2.67;;;24.40;99.90;;;;;;5092082;28;20239;-52